Time;durP1;ratioP1;P1;durP2;ratioP2;P2;SDS_P1;SDS_P2;PMS_P1;PMS_P2;Temp;Humidity;BMP_temperature;BMP_pressure;BME280_temperature;BME280_humidity;BME280_pressure;Samples;Min_cycle;Max_cycle;Signal;HPM_P1;HPM_P2
2023/06/12 00:00:46;;;;;;;4.57;4.17;;;16.30;99.90;;;;;;5052540;28;20466;-71
2023/06/12 00:03:13;;;;;;;4.67;4.17;;;16.30;99.90;;;;;;5052687;28;20479;-72
2023/06/12 00:05:43;;;;;;;4.80;4.30;;;16.20;99.90;;;;;;5052667;28;20550;-71
2023/06/12 00:08:11;;;;;;;7.87;4.30;;;16.20;99.90;;;;;;5052936;28;20493;-71
2023/06/12 00:10:38;;;;;;;6.43;5.83;;;16.20;99.90;;;;;;5052695;28;20467;-71
2023/06/12 00:13:05;;;;;;;4.37;4.00;;;16.20;99.90;;;;;;5052480;28;20451;-71
2023/06/12 00:15:32;;;;;;;3.97;3.57;;;16.20;99.90;;;;;;5052758;28;20467;-71
2023/06/12 00:18:00;;;;;;;5.00;4.10;;;16.10;99.90;;;;;;5052472;28;21006;-71
2023/06/12 00:20:27;;;;;;;4.43;3.80;;;16.10;99.90;;;;;;5052534;28;20854;-71
2023/06/12 00:22:54;;;;;;;5.47;4.87;;;16.00;99.90;;;;;;5051904;28;20502;-71
2023/06/12 00:25:21;;;;;;;5.73;4.67;;;16.00;99.90;;;;;;5052730;28;20459;-71
2023/06/12 00:27:48;;;;;;;3.93;3.60;;;16.00;99.90;;;;;;5052032;28;20486;-71
2023/06/12 00:30:15;;;;;;;4.90;4.40;;;16.00;99.90;;;;;;5052278;28;20460;-72
2023/06/12 00:32:42;;;;;;;4.03;3.63;;;15.90;99.90;;;;;;5051877;28;21002;-71
2023/06/12 00:35:10;;;;;;;5.37;4.27;;;15.90;99.90;;;;;;5052637;28;20828;-71
2023/06/12 00:37:37;;;;;;;4.60;4.20;;;15.90;99.90;;;;;;5052105;28;21052;-71
2023/06/12 00:40:06;;;;;;;5.03;4.40;;;15.90;99.90;;;;;;5052029;28;21017;-71
2023/06/12 00:42:33;;;;;;;4.73;4.33;;;15.90;99.90;;;;;;5051970;28;20852;-71
2023/06/12 00:45:00;;;;;;;5.27;4.77;;;15.90;99.90;;;;;;5051909;28;20509;-71
2023/06/12 00:47:27;;;;;;;4.97;4.57;;;15.90;99.90;;;;;;5052110;28;20468;-71
2023/06/12 00:49:54;;;;;;;5.20;4.70;;;15.90;99.90;;;;;;5051621;28;20459;-71
2023/06/12 00:52:29;;;;;;;5.17;4.67;;;15.80;99.90;;;;;;5051805;28;20551;-71
2023/06/12 00:54:57;;;;;;;4.20;3.80;;;15.80;99.90;;;;;;5051754;28;20470;-71
2023/06/12 00:57:23;;;;;;;4.87;4.37;;;15.80;99.90;;;;;;5051664;28;20490;-71
2023/06/12 00:59:50;;;;;;;4.70;4.30;;;15.70;99.90;;;;;;5051033;28;20459;-71
2023/06/12 01:02:18;;;;;;;5.27;4.73;;;15.70;99.90;;;;;;5051276;28;20570;-71
2023/06/12 01:04:46;;;;;;;4.87;4.43;;;15.70;99.90;;;;;;5051192;28;20488;-71
2023/06/12 01:07:21;;;;;;;7.87;7.10;;;15.70;99.90;;;;;;5051350;28;20463;-71
2023/06/12 01:09:56;;;;;;;4.73;4.23;;;15.70;99.90;;;;;;5050821;28;20467;-71
2023/06/12 01:12:24;;;;;;;4.73;4.33;;;15.70;99.90;;;;;;5051008;28;20828;-71
2023/06/12 01:14:50;;;;;;;4.60;4.20;;;15.70;99.90;;;;;;5050838;28;20858;-71
2023/06/12 01:17:18;;;;;;;4.60;4.20;;;15.70;99.90;;;;;;5051210;28;20475;-71
2023/06/12 01:19:45;;;;;;;4.50;4.10;;;15.60;99.90;;;;;;5050533;28;20463;-71
2023/06/12 01:22:16;;;;;;;4.30;3.97;;;15.60;99.90;;;;;;5050940;28;20466;-71
2023/06/12 01:25:25;;;;;;;4.60;4.20;;;15.60;99.90;;;;;;5050874;28;20459;-71
2023/06/12 01:28:05;;;;;;;4.47;4.07;;;15.60;99.90;;;;;;5050665;28;20493;-71
2023/06/12 01:30:43;;;;;;;5.03;4.53;;;15.60;99.90;;;;;;5051123;28;20460;-71
2023/06/12 01:33:17;;;;;;;4.60;4.20;;;15.60;99.90;;;;;;5050850;28;20459;-71
2023/06/12 01:35:46;;;;;;;4.90;4.30;;;15.60;99.90;;;;;;5050719;28;20939;-71
2023/06/12 01:38:17;;;;;;;5.10;4.47;;;15.60;99.90;;;;;;5051031;28;20475;-71
2023/06/12 01:40:47;;;;;;;5.30;4.67;;;15.50;99.90;;;;;;5050173;28;20966;-71
2023/06/12 01:43:14;;;;;;;6.50;4.80;;;15.50;99.90;;;;;;5050823;28;21001;-71
2023/06/12 01:45:42;;;;;;;5.23;4.73;;;15.50;99.90;;;;;;5051285;28;20463;-71
2023/06/12 01:48:09;;;;;;;4.20;3.80;;;15.50;99.90;;;;;;5051317;28;20491;-71
2023/06/12 01:50:37;;;;;;;4.43;4.03;;;15.50;99.90;;;;;;5051131;28;20470;-71
2023/06/12 01:53:04;;;;;;;4.60;3.90;;;15.50;99.90;;;;;;5051179;28;20455;-71
2023/06/12 01:55:30;;;;;;;5.17;3.73;;;15.50;99.90;;;;;;5051329;28;20530;-71
2023/06/12 01:57:57;;;;;;;6.63;4.07;;;15.40;99.90;;;;;;5050906;28;20514;-71
2023/06/12 02:00:24;;;;;;;3.43;3.13;;;15.40;99.90;;;;;;5051448;28;20456;-71
2023/06/12 02:02:54;;;;;;;4.20;3.53;;;15.30;99.90;;;;;;5050587;28;20569;-71
2023/06/12 02:05:21;;;;;;;4.50;4.10;;;15.30;99.90;;;;;;5051007;28;21008;-71
2023/06/12 02:07:49;;;;;;;4.30;3.90;;;15.30;99.90;;;;;;5050695;28;20506;-71
2023/06/12 02:10:16;;;;;;;4.07;3.67;;;15.20;99.90;;;;;;5050929;28;20463;-71
2023/06/12 02:12:43;;;;;;;4.27;3.87;;;15.20;99.90;;;;;;5050418;28;20829;-71
2023/06/12 02:15:11;;;;;;;4.47;4.03;;;15.20;99.90;;;;;;5050917;28;20499;-71
2023/06/12 02:17:38;;;;;;;4.60;4.20;;;15.20;99.90;;;;;;5050148;28;20514;-71
2023/06/12 02:20:06;;;;;;;5.67;4.10;;;15.10;99.90;;;;;;5050801;28;20889;-71
2023/06/12 02:22:33;;;;;;;4.10;3.70;;;15.10;99.90;;;;;;5050246;28;20974;-70
2023/06/12 02:25:01;;;;;;;4.50;3.93;;;15.00;99.90;;;;;;5050461;28;20467;-70
2023/06/12 02:27:28;;;;;;;4.33;3.93;;;15.00;99.90;;;;;;5050496;28;20491;-70
2023/06/12 02:29:55;;;;;;;5.20;4.57;;;15.00;99.90;;;;;;5050057;28;20459;-70
2023/06/12 02:32:21;;;;;;;4.13;3.80;;;14.90;99.90;;;;;;5050345;28;20833;-70
2023/06/12 02:34:49;;;;;;;4.97;4.40;;;14.90;99.90;;;;;;5051260;28;20452;-71
2023/06/12 02:37:16;;;;;;;4.40;4.00;;;14.90;99.90;;;;;;5050859;28;20466;-70
2023/06/12 02:39:43;;;;;;;4.50;4.10;;;14.80;99.90;;;;;;5050038;28;20503;-70
2023/06/12 02:42:11;;;;;;;4.63;4.23;;;14.80;99.90;;;;;;5050072;28;20459;-70
2023/06/12 02:44:38;;;;;;;4.10;3.80;;;14.70;99.90;;;;;;5050008;28;20533;-70
2023/06/12 02:47:05;;;;;;;4.63;3.87;;;14.70;99.90;;;;;;5050326;28;20471;-70
2023/06/12 02:49:32;;;;;;;4.50;3.97;;;14.70;99.90;;;;;;5050165;28;20492;-71
2023/06/12 02:51:59;;;;;;;5.10;4.60;;;14.70;99.90;;;;;;5049980;28;20499;-70
2023/06/12 02:54:27;;;;;;;4.00;3.70;;;14.60;99.90;;;;;;5050416;28;20454;-71
2023/06/12 02:56:54;;;;;;;4.73;4.13;;;14.60;99.90;;;;;;5049948;28;20867;-70
2023/06/12 02:59:24;;;;;;;4.50;4.10;;;14.60;99.90;;;;;;5050271;28;20994;-71
2023/06/12 03:01:51;;;;;;;6.20;5.43;;;14.50;99.90;;;;;;5049580;28;20463;-71
2023/06/12 03:04:20;;;;;;;4.10;3.70;;;14.50;99.90;;;;;;5050432;28;20487;-70
2023/06/12 03:06:47;;;;;;;4.53;3.87;;;14.50;99.90;;;;;;5050181;28;20455;-70
2023/06/12 03:09:15;;;;;;;4.10;3.70;;;14.40;99.90;;;;;;5042013;28;20485;-70
2023/06/12 03:11:43;;;;;;;5.00;4.27;;;14.40;99.90;;;;;;5049589;28;20467;-71
2023/06/12 03:14:09;;;;;;;3.83;3.53;;;14.40;99.90;;;;;;5050039;28;20492;-71
2023/06/12 03:16:37;;;;;;;4.53;4.13;;;14.40;99.90;;;;;;5050332;28;20525;-71
2023/06/12 03:19:04;;;;;;;4.90;4.40;;;14.30;99.90;;;;;;5049935;28;20853;-71
2023/06/12 03:21:32;;;;;;;4.43;4.03;;;14.40;99.90;;;;;;5049877;28;20452;-71
2023/06/12 03:23:58;;;;;;;5.13;4.17;;;14.30;99.90;;;;;;5049496;28;20480;-70
2023/06/12 03:26:27;;;;;;;5.23;4.73;;;14.30;99.90;;;;;;5049983;28;20537;-70
2023/06/12 03:28:54;;;;;;;5.43;4.70;;;14.20;99.90;;;;;;5049392;28;20489;-70
2023/06/12 03:31:24;;;;;;;4.10;3.70;;;14.20;99.90;;;;;;5052881;28;20470;-70
2023/06/12 03:33:53;;;;;;;4.77;4.20;;;14.20;99.90;;;;;;5053233;28;21295;-70
2023/06/12 03:36:21;;;;;;;5.40;4.90;;;14.20;99.90;;;;;;5053351;28;20466;-70
2023/06/12 03:38:47;;;;;;;4.78;4.28;;;14.10;99.90;;;;;;5052674;28;20455;-70
2023/06/12 03:41:14;;;;;;;5.23;3.90;;;14.10;99.90;;;;;;5052421;28;20197;-70
2023/06/12 03:43:41;;;;;;;5.03;4.43;;;14.10;99.90;;;;;;5052471;28;20701;-69
2023/06/12 03:46:07;;;;;;;5.23;4.53;;;14.10;99.90;;;;;;5053079;28;20953;-69
2023/06/12 03:48:35;;;;;;;5.37;4.33;;;14.10;99.90;;;;;;5053316;28;20597;-69
2023/06/12 03:51:05;;;;;;;4.70;4.30;;;14.10;99.90;;;;;;5052910;28;20482;-69
2023/06/12 03:53:32;;;;;;;4.50;4.10;;;14.10;99.90;;;;;;5053200;28;20457;-68
2023/06/12 03:55:59;;;;;;;5.00;3.93;;;14.10;99.90;;;;;;5053008;28;20481;-68
2023/06/12 03:58:26;;;;;;;4.10;3.73;;;14.10;99.90;;;;;;5053130;28;20492;-68
2023/06/12 04:00:53;;;;;;;4.57;4.17;;;14.10;99.90;;;;;;5051935;28;20459;-69
2023/06/12 04:03:21;;;;;;;4.90;4.20;;;14.10;99.90;;;;;;5052128;28;20475;-69
2023/06/12 04:05:49;;;;;;;4.97;4.57;;;14.10;99.90;;;;;;5052451;28;20491;-68
2023/06/12 04:08:17;;;;;;;4.90;4.50;;;14.10;99.90;;;;;;5052265;28;20490;-68
2023/06/12 04:10:45;;;;;;;4.57;4.10;;;14.10;99.90;;;;;;5053330;28;20459;-67
2023/06/12 04:13:12;;;;;;;5.50;3.63;;;14.10;99.90;;;;;;5053097;28;20463;-69
2023/06/12 04:15:39;;;;;;;4.60;4.20;;;14.20;99.90;;;;;;5052556;28;20947;-69
2023/06/12 04:18:07;;;;;;;4.77;4.37;;;14.20;99.90;;;;;;5052191;28;20998;-68
2023/06/12 04:20:33;;;;;;;5.20;4.30;;;14.20;99.90;;;;;;5052530;28;20463;-69
2023/06/12 04:23:04;;;;;;;5.53;4.77;;;14.30;99.90;;;;;;5052007;28;20470;-69
2023/06/12 04:25:32;;;;;;;4.73;4.33;;;14.30;99.90;;;;;;5053140;28;20468;-69
2023/06/12 04:27:59;;;;;;;4.83;4.33;;;14.40;99.90;;;;;;5051380;28;20511;-69
2023/06/12 04:30:26;;;;;;;5.73;4.10;;;14.40;99.90;;;;;;5051097;28;20873;-67
2023/06/12 04:32:55;;;;;;;5.07;4.57;;;14.40;99.90;;;;;;5047447;28;20467;-69
2023/06/12 04:35:22;;;;;;;4.20;3.83;;;14.50;99.90;;;;;;5049869;28;20555;-68
2023/06/12 04:37:52;;;;;;;5.10;4.37;;;14.50;99.90;;;;;;5049267;28;20879;-69
2023/06/12 04:40:20;;;;;;;4.57;4.17;;;14.60;99.90;;;;;;5049016;28;20464;-69
2023/06/12 04:42:48;;;;;;;4.87;4.37;;;14.60;99.90;;;;;;5049742;28;20498;-69
2023/06/12 04:45:16;;;;;;;4.10;3.70;;;14.70;99.90;;;;;;5050042;28;20994;-69
2023/06/12 04:47:43;;;;;;;4.70;4.30;;;14.70;99.90;;;;;;5115626;22;20579;-71
2023/06/12 04:50:10;;;;;;;5.17;4.70;;;14.80;99.90;;;;;;5050742;28;20509;-72
2023/06/12 04:52:39;;;;;;;8.40;4.70;;;14.90;99.90;;;;;;5051741;28;20813;-71
2023/06/12 04:55:08;;;;;;;4.50;4.10;;;14.90;99.90;;;;;;5052059;28;20467;-72
2023/06/12 04:57:36;;;;;;;4.57;4.17;;;15.00;99.90;;;;;;5051916;28;20483;-72
2023/06/12 05:00:07;;;;;;;4.90;4.40;;;15.10;99.90;;;;;;5051824;28;20460;-72
2023/06/12 05:02:33;;;;;;;4.50;4.10;;;15.20;99.90;;;;;;5051777;28;20460;-71
2023/06/12 05:05:01;;;;;;;4.90;4.50;;;15.20;99.90;;;;;;5051910;28;20483;-72
2023/06/12 05:07:27;;;;;;;4.73;4.33;;;15.30;99.90;;;;;;5051544;28;20495;-72
2023/06/12 05:09:55;;;;;;;4.93;4.53;;;15.40;99.90;;;;;;5051661;28;20467;-71
2023/06/12 05:12:22;;;;;;;4.53;4.13;;;15.50;99.90;;;;;;5051727;28;20476;-72
2023/06/12 05:14:49;;;;;;;4.60;4.20;;;15.60;99.90;;;;;;5051952;28;20451;-72
2023/06/12 05:17:17;;;;;;;5.27;4.40;;;15.80;99.90;;;;;;5051574;28;20463;-72
2023/06/12 05:19:44;;;;;;;4.53;4.13;;;15.90;99.90;;;;;;5051471;28;20762;-72
2023/06/12 05:22:11;;;;;;;5.00;4.60;;;16.00;99.90;;;;;;5051283;28;20872;-72
2023/06/12 05:24:37;;;;;;;5.37;4.87;;;16.20;99.90;;;;;;5051689;28;20486;-71
2023/06/12 05:27:06;;;;;;;4.93;4.33;;;16.30;99.90;;;;;;5051783;28;20455;-72
2023/06/12 05:29:33;;;;;;;4.77;4.27;;;16.40;99.90;;;;;;5051223;28;20633;-72
2023/06/12 05:32:00;;;;;;;4.00;3.60;;;16.60;99.90;;;;;;5051074;28;20475;-72
2023/06/12 05:34:28;;;;;;;5.40;4.83;;;16.70;99.90;;;;;;5051408;28;20508;-72
2023/06/12 05:36:55;;;;;;;4.97;4.47;;;16.80;99.90;;;;;;5051267;28;20467;-72
2023/06/12 05:39:33;;;;;;;4.77;4.37;;;16.90;99.90;;;;;;5051488;28;20479;-72
2023/06/12 05:42:00;;;;;;;5.13;4.63;;;17.00;99.90;;;;;;5051020;28;20546;-72
2023/06/12 05:44:27;;;;;;;5.27;4.87;;;17.10;99.90;;;;;;5051645;28;20475;-72
2023/06/12 05:46:54;;;;;;;5.20;4.60;;;17.20;99.90;;;;;;5051037;28;20470;-72
2023/06/12 05:49:20;;;;;;;5.10;4.60;;;17.30;99.90;;;;;;5051078;28;20492;-72
2023/06/12 05:51:48;;;;;;;6.17;5.27;;;17.40;99.90;;;;;;5050007;28;20946;-72
2023/06/12 05:54:15;;;;;;;5.20;4.70;;;17.50;99.90;;;;;;5051091;28;20947;-72
2023/06/12 05:56:42;;;;;;;6.30;5.07;;;17.70;99.90;;;;;;5051377;28;20466;-72
2023/06/12 05:59:09;;;;;;;5.93;4.23;;;17.80;99.90;;;;;;5051135;28;20480;-71
2023/06/12 06:01:35;;;;;;;4.70;4.20;;;17.90;99.90;;;;;;5050911;28;20456;-72
2023/06/12 06:04:02;;;;;;;4.77;4.37;;;18.00;99.90;;;;;;5051255;28;20907;-72
2023/06/12 06:06:30;;;;;;;4.77;4.37;;;18.10;99.90;;;;;;5051460;28;20825;-72
2023/06/12 06:08:59;;;;;;;5.00;4.50;;;18.20;99.90;;;;;;5051139;28;20924;-72
2023/06/12 06:11:28;;;;;;;4.60;4.20;;;18.30;99.90;;;;;;5043080;28;20460;-72
2023/06/12 06:13:54;;;;;;;4.77;4.37;;;18.30;99.90;;;;;;5051120;28;20939;-72
2023/06/12 06:16:21;;;;;;;5.20;4.70;;;18.40;99.90;;;;;;5051372;28;20470;-72
2023/06/12 06:18:48;;;;;;;5.77;5.27;;;18.50;99.90;;;;;;5050683;28;20558;-72
2023/06/12 06:21:15;;;;;;;5.83;4.17;;;18.60;99.90;;;;;;5049524;28;20472;-72
2023/06/12 06:23:41;;;;;;;5.00;4.50;;;18.60;99.90;;;;;;5050039;28;20471;-72
2023/06/12 06:26:10;;;;;;;5.00;4.60;;;18.70;99.90;;;;;;5050221;28;20467;-72
2023/06/12 06:28:37;;;;;;;5.20;4.70;;;18.80;99.90;;;;;;5050171;28;20487;-72
2023/06/12 06:31:04;;;;;;;4.37;4.07;;;18.90;99.90;;;;;;5049913;28;20475;-72
2023/06/12 06:33:32;;;;;;;5.20;4.70;;;19.00;99.90;;;;;;5050250;28;20491;-72
2023/06/12 06:35:59;;;;;;;4.87;4.37;;;19.10;99.90;;;;;;5050147;28;20460;-72
2023/06/12 06:38:25;;;;;;;4.83;4.30;;;19.10;99.90;;;;;;5050320;28;20488;-72
2023/06/12 06:40:52;;;;;;;5.57;5.07;;;19.20;99.90;;;;;;5049933;28;20491;-72
2023/06/12 06:43:21;;;;;;;4.23;3.83;;;19.20;99.90;;;;;;5049935;28;20464;-72
2023/06/12 06:45:47;;;;;;;4.50;4.10;;;19.30;99.90;;;;;;5050668;28;20479;-72
2023/06/12 06:48:14;;;;;;;4.77;4.37;;;19.40;99.90;;;;;;5049916;28;20487;-72
2023/06/12 06:50:41;;;;;;;5.27;4.83;;;19.40;99.90;;;;;;5049657;28;20525;-72
2023/06/12 06:53:08;;;;;;;4.53;4.13;;;19.50;99.90;;;;;;5049081;28;20835;-72
2023/06/12 06:55:35;;;;;;;5.03;4.53;;;19.50;99.90;;;;;;5050142;28;20459;-72
2023/06/12 06:58:02;;;;;;;4.87;4.47;;;19.50;99.90;;;;;;5046687;28;20861;-70
2023/06/12 07:00:31;;;;;;;7.63;4.30;;;19.60;99.90;;;;;;5047650;28;20808;-72
2023/06/12 07:02:58;;;;;;;5.70;4.70;;;19.70;99.90;;;;;;5049495;28;20538;-72
2023/06/12 07:05:27;;;;;;;5.20;4.70;;;19.80;99.90;;;;;;5053987;28;20480;-72
2023/06/12 07:07:54;;;;;;;4.60;4.20;;;19.80;99.90;;;;;;5053351;28;20479;-72
2023/06/12 07:10:20;;;;;;;5.00;4.50;;;19.90;99.90;;;;;;5053796;28;20463;-72
2023/06/12 07:12:48;;;;;;;5.87;4.60;;;19.90;99.90;;;;;;5053208;28;20816;-72
2023/06/12 07:15:15;;;;;;;5.33;4.83;;;20.00;99.90;;;;;;5054089;28;20456;-72
2023/06/12 07:17:43;;;;;;;4.60;4.20;;;20.00;99.90;;;;;;5053126;28;20478;-72
2023/06/12 07:20:10;;;;;;;4.60;4.20;;;20.00;99.90;;;;;;5052721;28;20508;-71
2023/06/12 07:22:37;;;;;;;4.67;4.27;;;20.20;99.90;;;;;;5053209;28;20464;-72
2023/06/12 07:25:05;;;;;;;5.20;4.73;;;20.20;99.90;;;;;;5053404;28;20562;-71
2023/06/12 07:27:32;;;;;;;4.70;4.00;;;20.30;99.90;;;;;;5053534;28;21020;-72
2023/06/12 07:29:59;;;;;;;5.17;4.77;;;20.40;99.90;;;;;;5052535;28;20460;-72
2023/06/12 07:32:25;;;;;;;5.10;4.40;;;20.50;99.90;;;;;;5052917;28;20521;-72
2023/06/12 07:34:54;;;;;;;4.70;4.30;;;20.60;99.90;;;;;;5047146;28;20473;-73
2023/06/12 07:37:21;;;;;;;5.77;5.30;;;20.60;99.90;;;;;;5050665;28;20472;-71
2023/06/12 07:39:48;;;;;;;4.87;4.37;;;20.70;99.90;;;;;;5040667;28;20515;-72
2023/06/12 07:42:15;;;;;;;6.97;4.70;;;20.70;99.90;;;;;;5051227;28;20569;-72
2023/06/12 07:44:42;;;;;;;5.10;4.60;;;20.80;99.90;;;;;;5039559;28;20484;-72
2023/06/12 07:47:09;;;;;;;4.73;4.33;;;20.80;99.90;;;;;;5062472;28;20458;-72
2023/06/12 07:49:35;;;;;;;5.63;4.80;;;21.00;99.90;;;;;;5038805;28;20493;-71
2023/06/12 07:52:04;;;;;;;5.90;5.30;;;21.00;99.90;;;;;;5038009;28;20481;-72
2023/06/12 07:54:31;;;;;;;6.50;4.53;;;21.10;99.90;;;;;;5044005;28;20470;-72
2023/06/12 07:56:57;;;;;;;4.67;4.27;;;21.20;99.90;;;;;;5052384;28;20475;-71
2023/06/12 07:59:24;;;;;;;4.63;4.20;;;21.30;99.90;;;;;;5044815;28;20511;-72
2023/06/12 08:01:51;;;;;;;4.57;3.70;;;21.20;99.90;;;;;;5049853;28;20467;-72
2023/06/12 08:04:18;;;;;;;4.10;3.80;;;21.20;99.90;;;;;;5042633;28;20480;-71
2023/06/12 08:06:47;;;;;;;4.30;3.80;;;21.30;99.90;;;;;;5057820;28;20812;-71
2023/06/12 08:09:15;;;;;;;4.57;4.17;;;21.40;99.90;;;;;;5051737;28;20601;-71
2023/06/12 08:11:42;;;;;;;4.57;4.17;;;21.40;99.90;;;;;;5042553;28;20474;-71
2023/06/12 08:14:09;;;;;;;5.27;4.77;;;21.60;99.90;;;;;;5049598;28;20507;-72
2023/06/12 08:16:36;;;;;;;4.80;4.33;;;21.70;99.90;;;;;;5051225;28;20483;-72
2023/06/12 08:19:03;;;;;;;4.83;4.43;;;21.80;99.90;;;;;;5051690;28;20487;-72
2023/06/12 08:21:30;;;;;;;4.27;3.87;;;21.90;99.90;;;;;;5050920;28;20472;-72
2023/06/12 08:23:56;;;;;;;4.47;4.10;;;22.00;99.90;;;;;;5039445;28;20471;-72
2023/06/12 08:26:25;;;;;;;4.20;3.90;;;22.10;99.90;;;;;;5042010;28;20978;-72
2023/06/12 08:28:52;;;;;;;4.30;3.90;;;22.20;99.20;;;;;;5041626;28;21009;-72
2023/06/12 08:31:21;;;;;;;6.00;3.90;;;22.10;98.60;;;;;;5049549;28;20844;-71
2023/06/12 08:33:47;;;;;;;4.10;3.70;;;22.20;99.60;;;;;;5051046;28;20475;-72
2023/06/12 08:36:14;;;;;;;4.07;3.67;;;22.20;99.00;;;;;;5051173;28;20464;-72
2023/06/12 08:38:41;;;;;;;6.93;3.93;;;22.20;99.10;;;;;;5050801;28;20975;-72
2023/06/12 08:41:07;;;;;;;4.17;3.87;;;22.30;99.90;;;;;;5050926;28;20473;-72
2023/06/12 08:43:36;;;;;;;3.40;3.17;;;22.40;99.10;;;;;;5048404;28;20477;-72
2023/06/12 08:46:04;;;;;;;3.80;3.50;;;22.50;97.60;;;;;;5052051;28;20486;-71
2023/06/12 08:48:31;;;;;;;4.03;3.63;;;22.70;98.20;;;;;;5051180;28;20997;-72
2023/06/12 08:50:59;;;;;;;3.50;3.20;;;22.80;98.60;;;;;;5051595;28;21003;-73
2023/06/12 08:53:27;;;;;;;4.40;4.00;;;22.90;98.00;;;;;;5042676;28;20472;-72
2023/06/12 08:55:55;;;;;;;4.37;3.97;;;23.00;98.60;;;;;;5051703;28;20496;-72
2023/06/12 08:58:22;;;;;;;4.30;3.90;;;23.10;97.80;;;;;;5050581;28;20488;-72
2023/06/12 09:00:50;;;;;;;7.30;4.77;;;23.20;96.20;;;;;;5050096;28;20463;-72
2023/06/12 09:03:17;;;;;;;4.80;4.40;;;23.30;98.10;;;;;;5048397;28;20463;-72
2023/06/12 09:05:45;;;;;;;5.43;4.90;;;23.40;97.60;;;;;;5051401;28;20479;-72
2023/06/12 09:08:12;;;;;;;4.63;4.23;;;23.50;98.10;;;;;;5049251;28;21149;-73
2023/06/12 09:10:39;;;;;;;4.77;4.27;;;23.60;98.30;;;;;;5051305;28;20460;-72
2023/06/12 09:13:08;;;;;;;4.70;4.30;;;23.70;96.70;;;;;;5050320;28;20512;-72
2023/06/12 09:15:35;;;;;;;4.00;3.60;;;23.60;96.50;;;;;;5050153;28;20525;-72
2023/06/12 09:18:03;;;;;;;3.97;3.67;;;23.60;97.90;;;;;;5050644;28;20497;-72
2023/06/12 09:20:32;;;;;;;4.57;4.10;;;23.70;98.70;;;;;;5050934;28;20521;-72
2023/06/12 09:23:00;;;;;;;4.70;4.40;;;23.70;96.80;;;;;;5048512;28;20468;-73
2023/06/12 09:25:28;;;;;;;4.90;4.40;;;23.50;97.10;;;;;;5049907;28;20490;-72
2023/06/12 09:27:55;;;;;;;6.67;4.20;;;23.30;98.70;;;;;;5050258;28;21002;-72
2023/06/12 09:30:22;;;;;;;4.47;4.07;;;23.20;98.70;;;;;;5042915;28;20469;-73
2023/06/12 09:32:48;;;;;;;4.33;3.93;;;23.20;98.40;;;;;;5049293;28;20464;-73
2023/06/12 09:35:17;;;;;;;4.47;4.07;;;23.40;97.60;;;;;;5050241;28;20456;-73
2023/06/12 09:37:45;;;;;;;6.23;4.70;;;23.60;97.50;;;;;;5049827;28;20507;-72
2023/06/12 09:40:13;;;;;;;4.60;4.20;;;23.80;96.00;;;;;;5050251;28;20482;-72
2023/06/12 09:42:41;;;;;;;3.90;3.50;;;23.80;95.90;;;;;;5050315;28;20544;-72
2023/06/12 09:45:15;;;;;;;5.37;4.40;;;23.70;95.80;;;;;;5049899;28;20494;-72
2023/06/12 09:47:43;;;;;;;4.03;3.73;;;23.70;97.60;;;;;;5042235;28;20499;-72
2023/06/12 09:50:10;;;;;;;4.00;3.70;;;23.80;96.30;;;;;;5049489;28;20460;-72
2023/06/12 09:52:41;;;;;;;4.47;4.07;;;23.90;95.90;;;;;;5049289;28;20899;-73
2023/06/12 09:55:10;;;;;;;4.17;3.77;;;24.20;97.10;;;;;;5050109;28;20458;-72
2023/06/12 09:57:39;;;;;;;4.63;4.23;;;24.20;95.10;;;;;;5041847;28;20487;-73
2023/06/12 10:00:11;;;;;;;5.63;4.10;;;24.30;96.20;;;;;;5049423;28;20465;-72
2023/06/12 10:02:40;;;;;;;4.67;4.27;;;24.30;95.80;;;;;;5049688;28;20471;-72
2023/06/12 10:05:10;;;;;;;4.10;3.80;;;24.00;95.10;;;;;;5049810;28;21007;-72
2023/06/12 10:07:41;;;;;;;4.53;4.23;;;23.90;95.30;;;;;;5049787;28;21059;-72
2023/06/12 10:10:10;;;;;;;6.03;4.30;;;23.70;96.10;;;;;;5046633;28;20735;-72
2023/06/12 10:12:39;;;;;;;4.57;4.17;;;23.60;96.10;;;;;;5047345;28;20918;-72
2023/06/12 10:15:07;;;;;;;4.50;4.10;;;23.50;95.80;;;;;;5047838;28;20544;-72
2023/06/12 10:17:35;;;;;;;4.50;4.17;;;23.50;98.50;;;;;;5048832;28;20485;-72
2023/06/12 10:20:04;;;;;;;4.03;3.70;;;23.70;98.00;;;;;;5048671;28;20502;-72
2023/06/12 10:22:30;;;;;;;5.03;4.53;;;23.90;97.40;;;;;;5038190;28;20821;-72
2023/06/12 10:24:59;;;;;;;4.60;4.20;;;24.30;97.30;;;;;;5043038;28;20857;-72
2023/06/12 10:27:27;;;;;;;4.27;3.87;;;24.60;98.20;;;;;;5049264;28;20841;-72
2023/06/12 10:29:58;;;;;;;4.97;4.43;;;24.80;97.50;;;;;;5049110;28;20819;-72
2023/06/12 10:32:26;;;;;;;4.77;4.37;;;24.90;96.20;;;;;;5048222;28;20468;-72
2023/06/12 10:34:55;;;;;;;4.20;3.83;;;24.90;95.20;;;;;;5049236;28;21046;-72
2023/06/12 10:37:23;;;;;;;4.80;4.40;;;25.00;96.50;;;;;;5049057;28;20465;-72
2023/06/12 10:40:07;;;;;;;3.97;3.67;;;25.10;95.10;;;;;;5048107;28;20463;-73
2023/06/12 10:42:42;;;;;;;4.77;4.37;;;25.20;95.80;;;;;;5048835;28;20465;-73
2023/06/12 10:45:19;;;;;;;4.80;4.40;;;25.40;95.40;;;;;;5048494;28;20462;-73
2023/06/12 10:48:12;;;;;;;4.63;4.17;;;25.50;96.30;;;;;;5092050;22;20498;-71
2023/06/12 10:50:41;;;;;;;4.43;4.03;;;25.50;94.40;;;;;;5052998;28;20471;-71
2023/06/12 10:53:09;;;;;;;4.63;4.20;;;25.60;93.50;;;;;;5049612;28;20460;-71
2023/06/12 10:55:38;;;;;;;4.20;3.80;;;25.50;94.60;;;;;;5046404;28;20467;-71
2023/06/12 10:58:06;;;;;;;4.30;3.90;;;25.50;93.80;;;;;;5049759;28;20482;-71
2023/06/12 11:00:35;;;;;;;4.00;3.70;;;25.60;92.60;;;;;;5049273;28;20473;-70
2023/06/12 11:03:04;;;;;;;4.37;4.03;;;25.70;94.00;;;;;;5049695;28;20553;-71
2023/06/12 11:05:32;;;;;;;4.33;3.97;;;25.70;93.60;;;;;;5049036;28;20487;-70
2023/06/12 11:08:00;;;;;;;4.77;4.27;;;25.80;94.90;;;;;;5049558;28;20501;-70
2023/06/12 11:10:28;;;;;;;4.70;3.43;;;26.00;94.00;;;;;;5048821;28;20562;-70
2023/06/12 11:12:57;;;;;;;4.13;3.83;;;26.00;93.30;;;;;;5049564;28;20477;-70
2023/06/12 11:15:25;;;;;;;4.43;3.90;;;26.10;93.10;;;;;;5049341;28;20837;-71
2023/06/12 11:17:53;;;;;;;4.00;3.70;;;26.00;93.40;;;;;;5049157;28;20548;-71
2023/06/12 11:20:22;;;;;;;4.93;4.43;;;26.00;93.40;;;;;;5048886;28;20465;-70
2023/06/12 11:22:58;;;;;;;4.20;3.80;;;26.00;92.30;;;;;;5049239;28;20498;-71
2023/06/12 11:25:25;;;;;;;4.83;4.00;;;26.00;92.60;;;;;;5048890;28;20566;-70
2023/06/12 11:27:54;;;;;;;4.53;4.13;;;26.00;93.20;;;;;;5049425;28;20493;-70
2023/06/12 11:30:25;;;;;;;4.80;4.40;;;26.10;92.20;;;;;;5047579;28;20468;-70
2023/06/12 11:32:51;;;;;;;4.53;4.13;;;26.10;92.60;;;;;;5048831;28;20467;-70
2023/06/12 11:35:18;;;;;;;4.67;4.17;;;26.20;93.10;;;;;;5049101;28;20470;-70
2023/06/12 11:37:45;;;;;;;4.63;4.30;;;26.30;94.80;;;;;;5048443;28;20488;-70
2023/06/12 11:40:13;;;;;;;4.73;4.27;;;26.40;93.80;;;;;;5048889;28;20567;-70
2023/06/12 11:42:42;;;;;;;5.93;3.90;;;26.50;93.40;;;;;;5048273;28;20472;-71
2023/06/12 11:45:09;;;;;;;4.30;3.87;;;26.50;92.00;;;;;;5048723;28;20960;-70
2023/06/12 11:47:39;;;;;;;4.10;3.70;;;26.60;92.30;;;;;;5048446;28;20864;-70
2023/06/12 11:50:08;;;;;;;4.83;4.43;;;26.60;92.60;;;;;;5049587;28;20487;-70
2023/06/12 11:52:35;;;;;;;4.17;3.77;;;26.60;91.40;;;;;;5051648;28;20469;-70
2023/06/12 11:55:04;;;;;;;4.20;3.80;;;26.60;91.90;;;;;;5052931;28;20472;-70
2023/06/12 11:57:31;;;;;;;4.27;3.87;;;26.80;92.60;;;;;;5051801;28;20491;-70
2023/06/12 11:59:59;;;;;;;4.10;3.80;;;26.80;92.70;;;;;;5052659;28;20502;-71
2023/06/12 12:02:30;;;;;;;4.20;3.80;;;27.00;91.10;;;;;;5052090;28;20472;-70
2023/06/12 12:05:00;;;;;;;4.90;4.40;;;27.00;93.60;;;;;;5052752;28;20559;-70
2023/06/12 12:07:29;;;;;;;6.50;3.90;;;26.90;89.30;;;;;;5051885;28;20518;-71
2023/06/12 12:10:07;;;;;;;4.90;4.50;;;26.80;87.80;;;;;;5052072;28;20496;-71
2023/06/12 12:12:44;;;;;;;4.60;4.20;;;26.70;90.00;;;;;;5051945;28;20497;-70
2023/06/12 12:15:12;;;;;;;4.93;4.50;;;26.80;89.40;;;;;;5052953;28;20495;-71
2023/06/12 12:17:39;;;;;;;4.47;4.07;;;26.60;87.90;;;;;;5052026;28;20486;-71
2023/06/12 12:20:14;;;;;;;4.57;4.17;;;26.60;91.70;;;;;;5052267;28;20947;-71
2023/06/12 12:22:41;;;;;;;4.63;3.80;;;26.70;90.10;;;;;;5050648;28;20471;-71
2023/06/12 12:25:09;;;;;;;3.70;3.40;;;26.80;87.30;;;;;;5052455;28;20474;-71
2023/06/12 12:27:38;;;;;;;4.70;4.20;;;26.80;87.20;;;;;;5051467;28;20594;-71
2023/06/12 12:30:05;;;;;;;4.57;3.23;;;26.70;90.70;;;;;;5052291;28;20466;-71
2023/06/12 12:32:33;;;;;;;4.43;4.03;;;26.80;90.70;;;;;;5051727;28;20476;-71
2023/06/12 12:34:59;;;;;;;4.90;3.87;;;26.90;89.90;;;;;;5051847;28;20461;-71
2023/06/12 12:37:28;;;;;;;4.00;3.60;;;26.90;88.50;;;;;;5051754;28;20460;-71
2023/06/12 12:39:55;;;;;;;4.70;4.30;;;27.00;90.80;;;;;;5047947;28;20470;-71
2023/06/12 12:42:21;;;;;;;4.27;3.97;;;27.10;91.30;;;;;;5048677;28;20476;-71
2023/06/12 12:44:48;;;;;;;4.00;3.70;;;27.10;88.80;;;;;;5043959;28;21063;-71
2023/06/12 12:47:15;;;;;;;4.17;3.83;;;27.10;87.60;;;;;;5051809;28;20869;-71
2023/06/12 12:49:42;;;;;;;4.53;4.13;;;27.10;89.90;;;;;;5051689;28;20470;-71
2023/06/12 12:52:08;;;;;;;4.17;3.77;;;27.30;91.20;;;;;;5051768;28;20466;-71